createdAt,value
2018-06-18T00:00:35.974Z,99.90
2018-06-18T00:03:03.512Z,99.90
2018-06-18T00:05:31.029Z,99.90
2018-06-18T00:07:58.552Z,99.90
2018-06-18T00:10:26.080Z,99.90
2018-06-18T00:12:53.630Z,99.90
2018-06-18T00:15:21.196Z,99.90
2018-06-18T00:17:48.708Z,99.90
2018-06-18T00:20:16.277Z,99.90
2018-06-18T00:22:43.820Z,99.90
2018-06-18T00:25:11.354Z,99.90
2018-06-18T00:27:38.930Z,99.90
2018-06-18T00:30:06.468Z,99.90
2018-06-18T00:32:33.982Z,99.90
2018-06-18T00:35:01.515Z,99.90
2018-06-18T00:37:29.091Z,99.90
2018-06-18T00:39:56.654Z,99.90
2018-06-18T00:42:24.254Z,99.90
2018-06-18T00:44:51.769Z,99.90
2018-06-18T00:47:19.347Z,99.90
2018-06-18T00:49:46.877Z,99.90
2018-06-18T00:52:14.387Z,99.90
2018-06-18T00:54:41.926Z,99.90
2018-06-18T00:57:09.504Z,99.90
2018-06-18T00:59:37.082Z,99.90
2018-06-18T01:02:04.648Z,99.90
2018-06-18T01:04:32.189Z,99.90
2018-06-18T01:06:59.705Z,99.90
2018-06-18T01:09:27.208Z,99.90
2018-06-18T01:11:54.740Z,99.90
2018-06-18T01:14:23.187Z,99.90
2018-06-18T01:16:50.719Z,99.90
2018-06-18T01:19:18.243Z,99.90
2018-06-18T01:21:45.831Z,99.90
2018-06-18T01:25:19.127Z,99.90
2018-06-18T01:27:46.655Z,99.90
2018-06-18T01:30:14.199Z,99.90
2018-06-18T01:32:41.808Z,99.90
2018-06-18T01:35:09.446Z,99.90
2018-06-18T01:37:36.973Z,99.90
2018-06-18T01:40:04.567Z,99.90
2018-06-18T01:42:32.184Z,99.90
2018-06-18T01:44:59.712Z,99.90
2018-06-18T01:47:27.264Z,99.90
2018-06-18T01:49:54.793Z,99.90
2018-06-18T01:52:22.322Z,99.90
2018-06-18T01:54:49.836Z,99.90
2018-06-18T01:57:17.412Z,99.90
2018-06-18T01:59:44.949Z,99.90
2018-06-18T02:02:12.485Z,99.90
2018-06-18T02:04:40.013Z,99.90
2018-06-18T02:07:07.549Z,99.90
2018-06-18T02:09:35.075Z,99.90
2018-06-18T02:12:02.613Z,99.90
2018-06-18T02:14:30.098Z,99.90
2018-06-18T02:16:57.607Z,99.90
2018-06-18T02:19:25.128Z,99.90
2018-06-18T02:21:52.705Z,99.90
2018-06-18T02:24:20.814Z,99.90
2018-06-18T02:26:52.926Z,99.90
2018-06-18T02:29:26.061Z,99.90
2018-06-18T02:31:59.165Z,99.90
2018-06-18T02:34:32.404Z,99.90
2018-06-18T02:39:10.287Z,99.90
2018-06-18T02:41:37.802Z,99.90
2018-06-18T02:44:05.385Z,99.90
2018-06-18T02:46:32.988Z,99.90
2018-06-18T02:49:00.523Z,99.90
2018-06-18T02:51:28.050Z,99.90
2018-06-18T02:53:55.552Z,99.90
2018-06-18T02:56:57.183Z,99.90
2018-06-18T02:59:24.788Z,99.90
2018-06-18T03:01:52.389Z,99.90
2018-06-18T03:04:19.928Z,99.90
2018-06-18T03:06:47.534Z,99.90
2018-06-18T03:09:15.053Z,99.90
2018-06-18T03:11:42.568Z,99.90
2018-06-18T03:14:10.106Z,99.90
2018-06-18T03:16:37.732Z,99.90
2018-06-18T03:19:10.958Z,99.90
2018-06-18T03:21:44.123Z,99.90
2018-06-18T03:24:17.377Z,99.90
2018-06-18T03:26:50.450Z,99.90
2018-06-18T03:31:51.856Z,99.90
2018-06-18T03:34:19.377Z,99.90
2018-06-18T03:36:46.997Z,99.90
2018-06-18T03:39:14.568Z,99.90
2018-06-18T03:41:44.565Z,99.90
2018-06-18T03:44:18.266Z,99.90
2018-06-18T03:46:45.841Z,99.90
2018-06-18T03:49:13.363Z,99.90
2018-06-18T03:51:40.892Z,99.90
2018-06-18T03:54:08.399Z,99.90
2018-06-18T03:56:35.930Z,99.90
2018-06-18T03:59:03.502Z,99.90
2018-06-18T04:01:48.969Z,99.90
2018-06-18T04:04:22.164Z,99.90
2018-06-18T04:06:55.383Z,99.90
2018-06-18T04:09:28.611Z,99.90
2018-06-18T04:12:01.801Z,99.90
2018-06-18T04:14:29.328Z,99.90
2018-06-18T04:16:56.837Z,99.90
2018-06-18T04:19:24.389Z,99.90
2018-06-18T04:21:51.905Z,99.90
2018-06-18T04:24:19.439Z,99.90
2018-06-18T04:26:46.949Z,99.90
2018-06-18T04:29:14.478Z,99.90
2018-06-18T04:31:42.013Z,99.90
2018-06-18T04:34:22.419Z,99.90
2018-06-18T04:36:50.001Z,99.90
2018-06-18T04:39:17.527Z,99.90
2018-06-18T04:41:50.908Z,99.90
2018-06-18T04:44:24.104Z,99.90
2018-06-18T04:46:57.248Z,99.90
2018-06-18T04:49:30.459Z,99.90
2018-06-18T04:51:58.016Z,99.90
2018-06-18T04:54:25.560Z,99.90
2018-06-18T04:56:53.071Z,99.90
2018-06-18T04:59:20.670Z,99.90
2018-06-18T05:01:48.174Z,99.90
2018-06-18T05:04:15.725Z,99.90
2018-06-18T05:06:43.262Z,99.90
2018-06-18T05:09:37.193Z,99.90
2018-06-18T05:12:04.716Z,99.80
2018-06-18T05:14:32.299Z,99.90
2018-06-18T05:16:59.846Z,99.80
2018-06-18T05:19:27.353Z,99.70
2018-06-18T05:21:54.884Z,99.50
2018-06-18T05:24:22.430Z,99.60
2018-06-18T05:26:51.860Z,99.70
2018-06-18T05:29:20.981Z,99.80
2018-06-18T05:31:48.524Z,99.90
2018-06-18T05:34:18.525Z,99.90
2018-06-18T05:36:46.180Z,99.90
2018-06-18T05:39:13.728Z,99.90
2018-06-18T05:41:41.295Z,99.90
2018-06-18T05:44:08.849Z,99.90
2018-06-18T05:46:36.416Z,99.90
2018-06-18T05:49:04.016Z,99.90
2018-06-18T05:51:31.541Z,99.90
2018-06-18T05:53:59.076Z,99.90
2018-06-18T05:56:26.640Z,99.90
2018-06-18T05:58:54.322Z,99.90
2018-06-18T06:01:21.867Z,99.90
2018-06-18T06:03:49.406Z,99.90
2018-06-18T06:06:16.940Z,99.90
2018-06-18T06:08:44.462Z,99.90
2018-06-18T06:11:11.997Z,99.90
2018-06-18T06:13:39.537Z,99.90
2018-06-18T06:18:34.607Z,99.90
2018-06-18T06:21:04.353Z,99.90
2018-06-18T06:23:31.866Z,99.90
2018-06-18T06:25:59.405Z,99.90
2018-06-18T06:28:26.974Z,99.90
2018-06-18T06:30:54.625Z,99.90
2018-06-18T06:33:23.291Z,99.90
2018-06-18T06:35:51.145Z,99.90
2018-06-18T06:38:18.703Z,99.40
2018-06-18T06:40:46.245Z,99.30
2018-06-18T06:43:13.773Z,99.00
2018-06-18T06:45:41.291Z,99.20
2018-06-18T06:48:08.859Z,98.90
2018-06-18T06:50:36.399Z,98.50
2018-06-18T06:53:03.941Z,98.20
2018-06-18T06:55:31.502Z,98.30
2018-06-18T06:57:59.304Z,98.60
2018-06-18T07:00:26.842Z,98.60
2018-06-18T07:02:54.358Z,98.50
2018-06-18T07:05:21.931Z,98.30
2018-06-18T07:07:49.478Z,98.20
2018-06-18T07:10:17.001Z,97.80
2018-06-18T07:12:44.554Z,97.70
2018-06-18T07:15:12.168Z,97.00
2018-06-18T07:17:40.175Z,97.00
2018-06-18T07:20:07.756Z,96.80
2018-06-18T07:22:35.326Z,96.30
2018-06-18T07:25:02.912Z,95.90
2018-06-18T07:27:30.422Z,95.40
2018-06-18T07:29:57.952Z,95.00
2018-06-18T07:32:25.484Z,94.60
2018-06-18T07:34:53.012Z,94.20
2018-06-18T07:37:20.577Z,93.50
2018-06-18T07:39:48.117Z,93.70
2018-06-18T07:42:15.641Z,93.80
2018-06-18T07:44:43.185Z,93.50
2018-06-18T07:47:10.728Z,93.10
2018-06-18T07:49:38.291Z,92.00
2018-06-18T07:52:05.846Z,92.00
2018-06-18T07:54:33.398Z,91.50
2018-06-18T07:57:00.954Z,91.40
2018-06-18T07:59:28.548Z,91.70
2018-06-18T08:01:56.103Z,92.20
2018-06-18T08:04:24.047Z,92.50
2018-06-18T08:06:51.680Z,92.80
2018-06-18T08:09:19.242Z,93.10
2018-06-18T08:11:46.790Z,93.30
2018-06-18T08:14:14.340Z,93.10
2018-06-18T08:16:41.882Z,92.70
2018-06-18T08:19:09.437Z,92.20
2018-06-18T08:21:36.996Z,91.50
2018-06-18T08:24:04.784Z,91.50
2018-06-18T08:26:32.321Z,91.20
2018-06-18T08:28:59.856Z,90.80
2018-06-18T08:31:27.386Z,90.40
2018-06-18T08:33:54.947Z,90.00
2018-06-18T08:36:22.477Z,87.90
2018-06-18T08:38:50.025Z,87.40
2018-06-18T08:41:17.603Z,87.60
2018-06-18T08:43:45.131Z,87.90
2018-06-18T08:46:12.676Z,88.80
2018-06-18T08:48:45.905Z,88.70
2018-06-18T08:51:19.027Z,88.80
2018-06-18T08:53:52.175Z,87.50
2018-06-18T08:56:25.433Z,88.10
2018-06-18T08:58:58.698Z,88.30
2018-06-18T09:04:06.340Z,85.00
2018-06-18T09:06:33.863Z,85.20
2018-06-18T09:09:01.391Z,85.80
2018-06-18T09:11:28.955Z,86.50
2018-06-18T09:13:56.500Z,85.20
2018-06-18T09:16:24.048Z,84.80
2018-06-18T09:18:51.878Z,83.20
2018-06-18T09:21:19.463Z,82.10
2018-06-18T09:23:47.062Z,80.20
2018-06-18T09:26:14.609Z,80.90
2018-06-18T09:28:42.181Z,81.60
2018-06-18T09:31:09.702Z,81.40
2018-06-18T09:33:37.322Z,80.70
2018-06-18T09:36:04.893Z,79.90
2018-06-18T09:38:32.447Z,80.00
2018-06-18T09:40:59.998Z,80.00
2018-06-18T09:43:27.539Z,78.90
2018-06-18T09:45:55.063Z,79.20
2018-06-18T09:48:27.179Z,78.90
2018-06-18T09:51:00.378Z,78.70
2018-06-18T09:53:33.580Z,76.70
2018-06-18T09:56:06.702Z,76.30
2018-06-18T09:58:39.798Z,76.90
2018-06-18T10:01:15.606Z,72.30
2018-06-18T10:03:43.255Z,72.70
2018-06-18T10:06:10.796Z,70.90
2018-06-18T10:08:38.419Z,70.10
2018-06-18T10:11:05.929Z,69.80
2018-06-18T10:13:33.454Z,69.10
2018-06-18T10:16:01.020Z,68.70
2018-06-18T10:18:28.624Z,66.60
2018-06-18T10:20:56.220Z,65.70
2018-06-18T10:23:23.743Z,64.90
2018-06-18T10:25:51.283Z,64.10
2018-06-18T10:28:18.855Z,63.70
2018-06-18T10:30:46.430Z,60.80
2018-06-18T10:33:19.603Z,61.50
2018-06-18T10:35:52.779Z,61.10
2018-06-18T10:38:26.035Z,60.70
2018-06-18T10:40:59.151Z,58.50
2018-06-18T10:43:30.233Z,59.30
2018-06-18T10:45:57.782Z,59.50
2018-06-18T10:48:25.507Z,60.00
2018-06-18T10:50:53.904Z,59.70
2018-06-18T10:53:21.613Z,57.70
2018-06-18T10:55:49.177Z,58.20
2018-06-18T10:58:16.858Z,58.40
2018-06-18T11:00:46.273Z,59.50
2018-06-18T11:03:14.011Z,59.00
2018-06-18T11:05:47.023Z,58.90
2018-06-18T11:08:14.590Z,59.20
2018-06-18T11:10:42.106Z,59.90
2018-06-18T11:13:09.632Z,59.60
2018-06-18T11:15:37.159Z,60.60
2018-06-18T11:18:10.257Z,61.10
2018-06-18T11:20:43.507Z,62.00
2018-06-18T11:23:16.727Z,62.40
2018-06-18T11:25:49.873Z,62.40
2018-06-18T11:28:17.469Z,59.70
2018-06-18T11:30:44.953Z,57.70
2018-06-18T11:33:12.506Z,57.70
2018-06-18T11:35:40.072Z,57.00
2018-06-18T11:38:07.625Z,56.70
2018-06-18T11:40:35.163Z,56.80
2018-06-18T11:43:02.716Z,56.00
2018-06-18T11:45:30.312Z,53.30
2018-06-18T11:48:22.511Z,52.90
2018-06-18T11:50:50.285Z,54.40
2018-06-18T11:53:18.578Z,55.00
2018-06-18T11:55:46.172Z,55.20
2018-06-18T11:58:18.488Z,55.00
2018-06-18T12:00:51.668Z,52.90
2018-06-18T12:03:24.981Z,51.90
2018-06-18T12:05:57.958Z,52.30
2018-06-18T12:08:31.058Z,52.80
2018-06-18T12:10:58.692Z,52.50
2018-06-18T12:13:26.248Z,51.90
2018-06-18T12:15:53.772Z,51.00
2018-06-18T12:18:21.320Z,51.40
2018-06-18T12:20:48.909Z,51.40
2018-06-18T12:23:16.439Z,51.80
2018-06-18T12:25:44.020Z,51.00
2018-06-18T12:28:11.627Z,51.40
2018-06-18T12:30:39.144Z,52.10
2018-06-18T12:33:06.722Z,52.30
2018-06-18T12:35:34.288Z,52.50
2018-06-18T12:38:01.854Z,52.80
2018-06-18T12:40:29.399Z,51.10
2018-06-18T12:42:57.004Z,50.20
2018-06-18T12:45:30.194Z,51.40
2018-06-18T12:48:03.371Z,51.50
2018-06-18T12:50:36.533Z,51.10
2018-06-18T12:53:09.835Z,50.40
2018-06-18T12:55:43.008Z,48.90
2018-06-18T12:58:10.616Z,49.20
2018-06-18T13:00:38.224Z,48.20
2018-06-18T13:03:10.427Z,47.20
2018-06-18T13:05:38.050Z,48.50
2018-06-18T13:08:05.684Z,48.40
2018-06-18T13:10:33.291Z,48.70
2018-06-18T13:13:00.858Z,47.90
2018-06-18T13:15:28.519Z,47.70
2018-06-18T13:17:56.087Z,48.20
2018-06-18T13:20:23.715Z,47.70
2018-06-18T13:22:51.259Z,48.70
2018-06-18T13:25:18.865Z,49.60
2018-06-18T13:27:52.052Z,50.40
2018-06-18T13:30:19.862Z,51.40
2018-06-18T13:32:47.422Z,52.50
2018-06-18T13:35:15.001Z,53.50
2018-06-18T13:37:48.191Z,54.50
2018-06-18T13:42:26.194Z,54.40
2018-06-18T13:44:59.288Z,55.60
2018-06-18T13:47:32.331Z,55.90
2018-06-18T13:49:59.916Z,55.50
2018-06-18T13:52:27.540Z,55.10
2018-06-18T13:54:55.195Z,55.00
2018-06-18T13:57:23.111Z,55.60
2018-06-18T13:59:50.665Z,55.80
2018-06-18T14:02:18.311Z,56.20
2018-06-18T14:04:45.899Z,56.40
2018-06-18T14:07:13.469Z,57.00
2018-06-18T14:09:41.017Z,58.10
2018-06-18T14:12:08.538Z,58.80
2018-06-18T14:14:36.147Z,59.60
2018-06-18T14:17:03.835Z,60.10
2018-06-18T14:19:36.919Z,60.10
2018-06-18T14:22:04.469Z,61.20
2018-06-18T14:24:32.030Z,60.80
2018-06-18T14:26:59.603Z,60.60
2018-06-18T14:29:32.642Z,60.30
2018-06-18T14:34:33.200Z,60.80
2018-06-18T14:37:06.337Z,61.20
2018-06-18T14:39:39.489Z,61.80
2018-06-18T14:42:08.074Z,61.30
2018-06-18T14:44:36.478Z,61.60
2018-06-18T14:47:04.073Z,61.90
2018-06-18T14:51:59.128Z,61.40
2018-06-18T14:54:26.808Z,61.10
2018-06-18T14:56:56.328Z,59.60
2018-06-18T14:59:31.035Z,56.60
2018-06-18T15:01:58.858Z,55.70
2018-06-18T15:04:26.384Z,55.70
2018-06-18T15:06:53.942Z,56.10
2018-06-18T15:09:21.543Z,56.90
2018-06-18T15:11:49.131Z,57.80
2018-06-18T15:14:16.734Z,59.00
2018-06-18T15:16:44.270Z,60.60
2018-06-18T15:19:11.853Z,61.70
2018-06-18T15:21:45.784Z,62.80
2018-06-18T15:24:17.335Z,63.90
2018-06-18T15:26:44.905Z,65.10
2018-06-18T15:29:12.448Z,65.50
2018-06-18T15:31:40.018Z,65.60
2018-06-18T15:34:07.588Z,66.20
2018-06-18T15:36:35.155Z,66.60
2018-06-18T15:39:02.970Z,67.10
2018-06-18T15:41:30.553Z,67.30
2018-06-18T15:43:58.329Z,68.00
2018-06-18T15:46:25.807Z,68.20
2018-06-18T15:48:53.355Z,68.00
2018-06-18T15:51:20.950Z,67.50
2018-06-18T15:53:48.511Z,66.60
2018-06-18T15:56:16.082Z,65.50
2018-06-18T15:58:43.631Z,64.90
2018-06-18T16:01:11.170Z,63.80
2018-06-18T16:03:38.723Z,62.60
2018-06-18T16:06:06.337Z,61.60
2018-06-18T16:08:33.916Z,58.90
2018-06-18T16:11:01.493Z,57.70
2018-06-18T16:13:29.087Z,56.10
2018-06-18T16:15:56.631Z,53.90
2018-06-18T16:18:24.187Z,53.30
2018-06-18T16:20:51.782Z,51.50
2018-06-18T16:23:19.331Z,50.60
2018-06-18T16:25:46.942Z,50.50
2018-06-18T16:28:14.496Z,50.80
2018-06-18T16:30:42.054Z,52.00
2018-06-18T16:33:09.635Z,53.60
2018-06-18T16:35:37.214Z,55.30
2018-06-18T16:38:04.832Z,56.40
2018-06-18T16:40:32.378Z,56.70
2018-06-18T16:42:59.986Z,56.40
2018-06-18T16:45:27.558Z,56.20
2018-06-18T16:47:55.130Z,55.70
2018-06-18T16:50:22.750Z,55.90
2018-06-18T16:52:50.294Z,54.30
2018-06-18T16:55:17.915Z,54.40
2018-06-18T16:57:45.418Z,54.50
2018-06-18T17:00:12.986Z,53.70
2018-06-18T17:02:40.637Z,52.70
2018-06-18T17:05:08.236Z,53.50
2018-06-18T17:07:35.793Z,53.30
2018-06-18T17:10:03.490Z,53.30
2018-06-18T17:12:31.067Z,53.40
2018-06-18T17:14:58.679Z,53.20
2018-06-18T17:17:26.317Z,53.60
2018-06-18T17:19:53.910Z,54.00
2018-06-18T17:22:21.483Z,55.30
2018-06-18T17:24:49.092Z,56.90
2018-06-18T17:27:16.686Z,58.00
2018-06-18T17:29:44.264Z,58.50
2018-06-18T17:32:11.882Z,59.20
2018-06-18T17:34:39.546Z,59.90
2018-06-18T17:37:07.168Z,60.70
2018-06-18T17:39:34.807Z,61.30
2018-06-18T17:42:02.450Z,61.60
2018-06-18T17:44:30.075Z,62.00
2018-06-18T17:46:57.663Z,62.60
2018-06-18T17:49:25.273Z,62.70
2018-06-18T17:51:53.065Z,63.40
2018-06-18T17:54:20.773Z,64.40
2018-06-18T17:56:48.377Z,65.40
2018-06-18T17:59:15.976Z,66.40
2018-06-18T18:01:43.721Z,67.20
2018-06-18T18:04:11.338Z,67.80
2018-06-18T18:06:39.052Z,67.70
2018-06-18T18:09:08.479Z,67.70
2018-06-18T18:11:36.269Z,67.80
2018-06-18T18:14:03.953Z,68.00
2018-06-18T18:16:31.609Z,68.40
2018-06-18T18:18:59.279Z,68.80
2018-06-18T18:21:27.001Z,69.20
2018-06-18T18:23:54.911Z,69.80
2018-06-18T18:26:22.609Z,70.70
2018-06-18T18:28:51.102Z,71.40
2018-06-18T18:31:19.363Z,71.90
2018-06-18T18:33:47.066Z,72.50
2018-06-18T18:36:14.713Z,73.00
2018-06-18T18:38:42.349Z,73.50
2018-06-18T18:43:37.693Z,74.40
2018-06-18T18:46:05.760Z,74.80
2018-06-18T18:48:34.038Z,75.20
2018-06-18T18:51:02.710Z,75.70
2018-06-18T18:53:30.684Z,75.90
2018-06-18T18:56:09.492Z,76.30
2018-06-18T18:59:42.595Z,76.80
2018-06-18T19:02:10.507Z,77.00
2018-06-18T19:04:44.938Z,77.50
2018-06-18T19:07:13.268Z,77.70
2018-06-18T19:09:45.092Z,78.20
2018-06-18T19:12:12.719Z,78.90
2018-06-18T19:14:40.392Z,79.40
2018-06-18T19:17:08.065Z,80.00
2018-06-18T19:20:11.558Z,80.60
2018-06-18T19:22:39.507Z,81.40
2018-06-18T19:25:07.179Z,82.30
2018-06-18T19:27:35.933Z,82.80
2018-06-18T19:32:32.017Z,83.70
2018-06-18T19:34:59.775Z,83.90
2018-06-18T19:37:27.514Z,84.20
2018-06-18T19:39:55.460Z,84.20
2018-06-18T19:42:23.691Z,84.80
2018-06-18T19:44:51.332Z,85.60
2018-06-18T19:47:34.498Z,86.20
2018-06-18T19:50:02.141Z,87.00
2018-06-18T19:52:30.515Z,88.10
2018-06-18T19:55:02.028Z,89.30
2018-06-18T19:57:30.062Z,89.80
2018-06-18T19:59:57.806Z,90.30
2018-06-18T20:02:25.574Z,90.50
2018-06-18T20:04:53.227Z,90.80
2018-06-18T20:07:22.274Z,91.10
2018-06-18T20:09:49.971Z,91.50
2018-06-18T20:12:17.633Z,91.70
2018-06-18T20:14:45.448Z,92.10
2018-06-18T20:17:13.099Z,92.40
2018-06-18T20:19:41.027Z,92.60
2018-06-18T20:22:08.708Z,92.80
2018-06-18T20:24:37.998Z,92.90
2018-06-18T20:27:05.684Z,93.00
2018-06-18T20:29:33.311Z,93.00
2018-06-18T20:32:01.073Z,93.00
2018-06-18T20:34:28.719Z,93.10
2018-06-18T20:36:56.389Z,93.20
2018-06-18T20:39:24.290Z,93.30
2018-06-18T20:41:51.903Z,93.40
2018-06-18T20:44:21.422Z,93.60
2018-06-18T20:46:49.051Z,93.70
2018-06-18T20:49:16.784Z,93.90
2018-06-18T20:51:44.852Z,94.00
2018-06-18T20:54:12.680Z,94.20
2018-06-18T20:56:40.604Z,94.20
2018-06-18T20:59:09.781Z,94.30
2018-06-18T21:01:37.435Z,94.40
2018-06-18T21:04:05.168Z,94.60
2018-06-18T21:06:32.722Z,94.80
2018-06-18T21:09:00.288Z,94.90
2018-06-18T21:11:27.855Z,95.10
2018-06-18T21:13:55.636Z,95.30
2018-06-18T21:16:23.181Z,95.40
2018-06-18T21:18:50.804Z,95.60
2018-06-18T21:21:18.339Z,95.80
2018-06-18T21:23:45.886Z,96.00
2018-06-18T21:26:13.394Z,96.10
2018-06-18T21:28:40.968Z,96.30
2018-06-18T21:31:08.531Z,96.40
2018-06-18T21:33:36.167Z,96.60
2018-06-18T21:36:03.802Z,96.70
2018-06-18T21:38:31.338Z,96.80
2018-06-18T21:40:58.921Z,96.90
2018-06-18T21:43:26.673Z,97.00
2018-06-18T21:45:54.290Z,97.10
2018-06-18T21:48:21.819Z,97.30
2018-06-18T21:50:49.358Z,97.40
2018-06-18T21:53:16.933Z,97.50
2018-06-18T21:55:44.518Z,97.50
2018-06-18T21:58:12.157Z,97.60
2018-06-18T22:00:44.287Z,97.70
2018-06-18T22:03:11.795Z,97.70
2018-06-18T22:05:39.447Z,97.80
2018-06-18T22:08:08.873Z,97.90
2018-06-18T22:10:36.433Z,98.00
2018-06-18T22:13:04.097Z,98.10
2018-06-18T22:15:31.687Z,98.30
2018-06-18T22:20:26.941Z,98.50
2018-06-18T22:22:54.501Z,98.60
2018-06-18T22:25:22.060Z,98.70
2018-06-18T22:27:49.656Z,98.70
2018-06-18T22:30:17.281Z,98.90
2018-06-18T22:32:44.806Z,98.90
2018-06-18T22:35:12.517Z,98.90
2018-06-18T22:37:40.041Z,99.00
2018-06-18T22:40:07.683Z,99.00
2018-06-18T22:42:35.247Z,99.20
2018-06-18T22:45:02.853Z,99.30
2018-06-18T22:47:30.419Z,99.30
2018-06-18T22:49:58.019Z,99.50
2018-06-18T22:52:25.571Z,99.50
2018-06-18T22:54:53.121Z,99.70
2018-06-18T22:57:20.723Z,99.80
2018-06-18T22:59:48.291Z,99.90
2018-06-18T23:02:18.826Z,99.90
2018-06-18T23:04:46.369Z,99.90
2018-06-18T23:07:14.021Z,99.90
2018-06-18T23:09:41.587Z,99.90
2018-06-18T23:12:09.156Z,99.90
2018-06-18T23:14:37.150Z,99.90
2018-06-18T23:17:04.752Z,99.90
2018-06-18T23:19:32.394Z,99.90
2018-06-18T23:22:00.835Z,99.90
2018-06-18T23:24:28.416Z,99.90
2018-06-18T23:26:56.029Z,99.90
2018-06-18T23:29:23.602Z,99.90
2018-06-18T23:31:51.166Z,99.90
2018-06-18T23:34:18.770Z,99.90
2018-06-18T23:36:46.376Z,99.90
2018-06-18T23:39:13.916Z,99.90
2018-06-18T23:41:44.586Z,99.90
2018-06-18T23:44:12.141Z,99.90
2018-06-18T23:46:39.653Z,99.90
2018-06-18T23:49:07.221Z,99.90
2018-06-18T23:51:34.775Z,99.90
2018-06-18T23:54:02.345Z,99.90
2018-06-18T23:56:29.917Z,99.90
2018-06-18T23:58:57.472Z,99.90
